createdAt,value
2022-10-20T00:01:15.166Z,6.77
2022-10-20T00:03:42.739Z,5.93
2022-10-20T00:06:24.757Z,5.80
2022-10-20T00:08:52.711Z,5.73
2022-10-20T00:11:21.568Z,6.63
2022-10-20T00:13:50.894Z,5.73
2022-10-20T00:16:18.362Z,4.77
2022-10-20T00:18:45.571Z,7.10
2022-10-20T00:21:18.990Z,8.63
2022-10-20T00:23:45.918Z,7.87
2022-10-20T00:26:24.905Z,8.97
2022-10-20T00:28:52.592Z,7.33
2022-10-20T00:31:20.954Z,7.17
2022-10-20T00:33:48.322Z,7.30
2022-10-20T00:36:17.652Z,8.57
2022-10-20T00:38:44.795Z,7.67
2022-10-20T00:41:17.474Z,9.50
2022-10-20T00:43:52.855Z,8.80
2022-10-20T00:46:40.119Z,9.27
2022-10-20T00:49:14.307Z,6.83
2022-10-20T00:51:41.163Z,6.47
2022-10-20T00:54:11.001Z,7.50
2022-10-20T00:56:42.541Z,9.13
2022-10-20T00:59:11.861Z,8.10
2022-10-20T01:01:40.139Z,8.47
2022-10-20T01:04:07.153Z,10.27
2022-10-20T01:06:33.898Z,8.90
2022-10-20T01:09:01.052Z,10.57
2022-10-20T01:11:54.085Z,7.23
2022-10-20T01:14:35.817Z,9.27
2022-10-20T01:17:15.816Z,7.83
2022-10-20T01:20:00.731Z,8.20
2022-10-20T01:22:36.109Z,13.57
2022-10-20T01:25:40.306Z,9.10
2022-10-20T01:28:12.352Z,11.33
2022-10-20T01:30:45.895Z,9.30
2022-10-20T01:33:37.393Z,9.07
2022-10-20T01:36:23.425Z,9.53
2022-10-20T01:39:02.388Z,10.57
2022-10-20T01:41:42.251Z,10.60
2022-10-20T01:44:13.296Z,9.63
2022-10-20T01:46:42.654Z,8.03
2022-10-20T01:49:11.647Z,11.40
2022-10-20T01:51:38.382Z,9.63
2022-10-20T01:54:05.409Z,10.53
2022-10-20T01:57:01.349Z,9.40
2022-10-20T01:59:48.910Z,13.07
2022-10-20T02:02:48.949Z,11.33
2022-10-20T02:05:18.759Z,8.97
2022-10-20T02:07:45.464Z,10.83
2022-10-20T02:10:32.161Z,12.90
2022-10-20T02:13:02.504Z,13.40
2022-10-20T02:15:31.767Z,14.17
2022-10-20T02:18:05.668Z,10.83
2022-10-20T02:20:33.103Z,9.37
2022-10-20T02:23:01.492Z,10.80
2022-10-20T02:25:29.749Z,14.47
2022-10-20T02:30:30.675Z,13.00
2022-10-20T02:32:57.389Z,11.17
2022-10-20T02:35:29.799Z,10.37
2022-10-20T02:37:57.439Z,12.73
2022-10-20T02:40:24.475Z,13.37
2022-10-20T02:42:51.258Z,9.23
2022-10-20T02:45:18.146Z,14.37
2022-10-20T02:47:44.985Z,12.23
2022-10-20T02:50:11.775Z,9.17
2022-10-20T02:52:38.693Z,11.03
2022-10-20T02:55:06.400Z,12.37
2022-10-20T02:57:33.376Z,13.33
2022-10-20T03:00:00.375Z,12.90
2022-10-20T03:02:27.144Z,14.67
2022-10-20T03:04:53.881Z,15.50
2022-10-20T03:07:20.597Z,11.83
2022-10-20T03:09:47.363Z,14.27
2022-10-20T03:12:14.063Z,15.77
2022-10-20T03:14:42.720Z,11.40
2022-10-20T03:17:10.055Z,11.00
2022-10-20T03:19:37.415Z,14.50
2022-10-20T03:22:04.163Z,13.13
2022-10-20T03:24:30.836Z,14.57
2022-10-20T03:26:57.525Z,12.27
2022-10-20T03:29:24.270Z,11.83
2022-10-20T03:31:50.991Z,11.27
2022-10-20T03:34:17.747Z,13.07
2022-10-20T03:36:44.421Z,13.10
2022-10-20T03:39:11.333Z,15.83
2022-10-20T03:41:38.121Z,12.43
2022-10-20T03:44:04.961Z,15.60
2022-10-20T03:46:31.638Z,13.87
2022-10-20T03:48:58.400Z,14.53
2022-10-20T03:51:25.094Z,13.93
2022-10-20T03:53:51.793Z,13.30
2022-10-20T03:56:20.879Z,12.90
2022-10-20T03:58:48.336Z,11.70
2022-10-20T04:01:18.016Z,17.00
2022-10-20T04:03:47.543Z,14.83
2022-10-20T04:06:15.068Z,17.37
2022-10-20T04:08:41.940Z,16.80
2022-10-20T04:11:08.803Z,17.37
2022-10-20T04:13:35.566Z,13.17
2022-10-20T04:16:02.353Z,14.67
2022-10-20T04:18:29.045Z,14.17
2022-10-20T04:20:55.702Z,15.27
2022-10-20T04:23:22.581Z,19.57
2022-10-20T04:25:49.287Z,16.67
2022-10-20T04:28:18.300Z,14.33
2022-10-20T04:30:45.660Z,16.73
2022-10-20T04:33:13.058Z,17.03
2022-10-20T04:35:40.251Z,18.13
2022-10-20T04:38:07.060Z,15.83
2022-10-20T04:40:33.826Z,16.13
2022-10-20T04:43:01.280Z,15.00
2022-10-20T04:45:28.442Z,16.30
2022-10-20T04:47:55.180Z,19.10
2022-10-20T04:50:22.050Z,14.83
2022-10-20T04:52:48.713Z,20.30
2022-10-20T04:55:15.543Z,20.60
2022-10-20T04:57:42.237Z,17.83
2022-10-20T05:00:09.475Z,18.47
2022-10-20T05:02:36.140Z,18.23
2022-10-20T05:05:04.899Z,17.23
2022-10-20T05:07:31.575Z,17.23
2022-10-20T05:09:58.254Z,20.10
2022-10-20T05:12:24.929Z,22.57
2022-10-20T05:14:51.728Z,16.13
2022-10-20T05:17:18.430Z,16.90
2022-10-20T05:19:45.893Z,16.73
2022-10-20T05:22:12.697Z,17.23
2022-10-20T05:24:40.074Z,25.73
2022-10-20T05:27:06.828Z,17.90
2022-10-20T05:29:33.521Z,17.63
2022-10-20T05:32:00.201Z,16.77
2022-10-20T05:34:26.906Z,20.53
2022-10-20T05:36:54.418Z,14.97
2022-10-20T05:39:21.308Z,19.10
2022-10-20T05:41:48.039Z,19.83
2022-10-20T05:44:14.842Z,15.60
2022-10-20T05:46:42.552Z,16.37
2022-10-20T05:49:15.362Z,19.07
2022-10-20T05:51:42.528Z,18.97
2022-10-20T05:54:11.716Z,17.93
2022-10-20T05:56:38.412Z,20.30
2022-10-20T05:59:05.101Z,15.57
2022-10-20T06:01:59.675Z,18.77
2022-10-20T06:04:28.121Z,19.23
2022-10-20T06:06:55.930Z,18.83
2022-10-20T06:09:24.464Z,21.20
2022-10-20T06:11:52.260Z,19.87
2022-10-20T06:14:19.343Z,20.33
2022-10-20T06:16:46.159Z,19.63
2022-10-20T06:19:12.830Z,19.60
2022-10-20T06:21:39.599Z,18.30
2022-10-20T06:24:06.984Z,22.93
2022-10-20T06:26:37.950Z,19.73
2022-10-20T06:29:07.030Z,18.63
2022-10-20T06:31:45.575Z,18.63
2022-10-20T06:34:24.031Z,17.47
2022-10-20T06:36:52.363Z,19.27
2022-10-20T06:39:21.811Z,20.80
2022-10-20T06:41:50.710Z,18.17
2022-10-20T06:44:22.484Z,20.57
2022-10-20T06:46:52.232Z,23.07
2022-10-20T06:49:19.409Z,21.00
2022-10-20T06:51:46.630Z,22.83
2022-10-20T06:54:13.341Z,18.57
2022-10-20T06:56:40.961Z,17.43
2022-10-20T06:59:07.767Z,17.53
2022-10-20T07:01:37.113Z,18.83
2022-10-20T07:04:06.611Z,19.03
2022-10-20T07:06:39.220Z,17.00
2022-10-20T07:09:08.340Z,16.87
2022-10-20T07:11:35.541Z,15.13
2022-10-20T07:14:03.144Z,15.30
2022-10-20T07:16:32.257Z,17.43
2022-10-20T07:18:59.898Z,14.53
2022-10-20T07:21:32.405Z,15.70
2022-10-20T07:24:04.002Z,16.87
2022-10-20T07:26:33.212Z,15.17
2022-10-20T07:29:01.628Z,16.60
2022-10-20T07:31:37.934Z,19.03
2022-10-20T07:34:20.381Z,14.40
2022-10-20T07:36:51.625Z,13.70
2022-10-20T07:39:18.488Z,12.57
2022-10-20T07:41:47.328Z,15.37
2022-10-20T07:44:14.779Z,12.63
2022-10-20T07:46:41.619Z,12.70
2022-10-20T07:49:39.217Z,11.53
2022-10-20T07:51:55.461Z,10.07
2022-10-20T07:54:22.352Z,12.57
2022-10-20T07:56:49.631Z,8.82
2022-10-20T07:59:16.382Z,9.15
2022-10-20T08:01:43.775Z,9.03
2022-10-20T08:04:11.192Z,9.35
2022-10-20T08:06:39.016Z,6.72
2022-10-20T08:09:06.430Z,6.05
2022-10-20T08:11:33.463Z,11.87
2022-10-20T08:14:00.172Z,7.80
2022-10-20T08:16:26.993Z,6.95
2022-10-20T08:19:03.869Z,6.40
2022-10-20T08:21:31.186Z,5.63
2022-10-20T08:23:58.059Z,4.70
2022-10-20T08:26:26.487Z,6.53
2022-10-20T08:28:54.855Z,4.43
2022-10-20T08:31:22.263Z,5.80
2022-10-20T08:33:52.681Z,4.50
2022-10-20T08:36:20.979Z,3.33
2022-10-20T08:38:48.161Z,3.85
2022-10-20T08:41:24.819Z,3.22
2022-10-20T08:43:54.863Z,3.40
2022-10-20T08:46:30.109Z,2.58
2022-10-20T08:48:57.715Z,2.55
2022-10-20T08:51:32.507Z,3.50
2022-10-20T08:54:01.271Z,3.38
2022-10-20T08:56:30.918Z,3.40
2022-10-20T08:58:58.237Z,4.22
2022-10-20T09:01:27.984Z,2.17
2022-10-20T09:04:09.948Z,2.95
2022-10-20T09:06:37.298Z,2.38
2022-10-20T09:09:04.220Z,3.13
2022-10-20T09:11:37.969Z,2.70
2022-10-20T09:14:04.859Z,1.98
2022-10-20T09:16:42.299Z,3.10
2022-10-20T09:19:23.525Z,3.95
2022-10-20T09:21:53.624Z,2.63
2022-10-20T09:24:22.477Z,2.95
2022-10-20T09:26:59.581Z,3.72
2022-10-20T09:29:41.526Z,2.28
2022-10-20T09:32:56.322Z,2.40
2022-10-20T09:35:22.484Z,2.08
2022-10-20T09:38:16.082Z,3.53
2022-10-20T09:41:09.988Z,3.83
2022-10-20T09:43:54.367Z,3.17
2022-10-20T09:46:30.965Z,2.72
2022-10-20T09:48:58.740Z,3.15
2022-10-20T09:51:28.663Z,4.55
2022-10-20T09:54:02.515Z,2.85
2022-10-20T09:56:38.135Z,2.90
2022-10-20T09:59:29.985Z,2.55
2022-10-20T10:02:19.603Z,4.47
2022-10-20T10:04:49.009Z,6.38
2022-10-20T10:07:24.807Z,3.78
2022-10-20T10:10:17.578Z,3.40
2022-10-20T10:12:52.355Z,4.22
2022-10-20T10:15:32.912Z,4.22
2022-10-20T10:18:02.512Z,4.68
2022-10-20T10:20:34.506Z,5.13
2022-10-20T10:23:32.174Z,3.33
2022-10-20T10:26:05.834Z,4.68
2022-10-20T10:28:38.842Z,4.88
2022-10-20T10:31:24.514Z,3.22
2022-10-20T10:34:12.528Z,3.72
2022-10-20T10:39:20.710Z,4.45
2022-10-20T10:41:59.776Z,5.05
2022-10-20T10:44:43.834Z,3.28
2022-10-20T10:47:22.691Z,7.15
2022-10-20T10:50:27.136Z,3.45
2022-10-20T10:53:12.556Z,6.00
2022-10-20T10:55:59.466Z,3.33
2022-10-20T10:58:42.927Z,4.43
2022-10-20T11:01:45.956Z,3.85
2022-10-20T11:04:33.617Z,4.07
2022-10-20T11:07:38.030Z,4.28
2022-10-20T11:10:28.090Z,4.35
2022-10-20T11:13:17.440Z,3.55
2022-10-20T11:16:04.091Z,5.03
2022-10-20T11:19:04.616Z,3.80
2022-10-20T11:21:49.707Z,3.50
2022-10-20T11:25:04.520Z,3.75
2022-10-20T11:27:35.884Z,5.05
2022-10-20T11:30:15.480Z,4.10
2022-10-20T11:32:45.352Z,5.78
2022-10-20T11:35:48.234Z,5.95
2022-10-20T11:38:23.826Z,4.97
2022-10-20T11:40:59.500Z,5.93
2022-10-20T11:43:30.854Z,3.88
2022-10-20T11:46:03.506Z,2.88
2022-10-20T11:48:52.801Z,2.97
2022-10-20T11:51:31.863Z,3.47
2022-10-20T11:54:15.307Z,3.17
2022-10-20T11:56:53.637Z,3.95
2022-10-20T11:59:51.752Z,2.60
2022-10-20T12:02:44.087Z,4.07
2022-10-20T12:05:36.354Z,4.53
2022-10-20T12:08:31.180Z,3.88
2022-10-20T12:14:36.203Z,4.03
2022-10-20T12:17:05.967Z,3.40
2022-10-20T12:19:39.142Z,3.42
2022-10-20T12:22:15.239Z,3.40
2022-10-20T12:25:04.188Z,3.42
2022-10-20T12:27:31.188Z,2.50
2022-10-20T12:30:32.302Z,2.90
2022-10-20T12:33:18.828Z,3.22
2022-10-20T12:36:21.788Z,4.45
2022-10-20T12:38:54.989Z,4.22
2022-10-20T12:42:02.583Z,5.03
2022-10-20T12:44:38.994Z,3.17
2022-10-20T12:47:08.530Z,4.95
2022-10-20T12:49:45.040Z,2.80
2022-10-20T12:52:22.493Z,2.85
2022-10-20T12:54:58.042Z,2.45
2022-10-20T12:57:45.165Z,2.92
2022-10-20T13:00:24.130Z,3.65
2022-10-20T13:02:54.103Z,3.13
2022-10-20T13:05:23.587Z,2.70
2022-10-20T13:07:53.879Z,4.00
2022-10-20T13:10:39.338Z,3.03
2022-10-20T13:13:06.127Z,4.18
2022-10-20T13:15:36.196Z,2.80
2022-10-20T13:18:04.822Z,4.80
2022-10-20T13:20:58.841Z,3.47
2022-10-20T13:23:30.419Z,13.25
2022-10-20T13:25:59.598Z,3.72
2022-10-20T13:28:29.316Z,4.10
2022-10-20T13:31:01.701Z,3.15
2022-10-20T13:34:02.570Z,4.82
2022-10-20T13:36:31.209Z,5.63
2022-10-20T13:39:15.188Z,3.78
2022-10-20T13:42:09.490Z,3.72
2022-10-20T13:44:54.736Z,7.68
2022-10-20T13:47:30.001Z,6.47
2022-10-20T13:50:27.318Z,6.00
2022-10-20T13:52:57.689Z,4.72
2022-10-20T13:55:31.830Z,4.55
2022-10-20T13:58:05.677Z,4.25
2022-10-20T14:00:34.456Z,4.97
2022-10-20T14:03:17.747Z,5.45
2022-10-20T14:05:44.480Z,5.20
2022-10-20T14:08:14.741Z,4.32
2022-10-20T14:10:48.439Z,6.13
2022-10-20T14:13:19.282Z,6.35
2022-10-20T14:15:49.570Z,5.18
2022-10-20T14:18:28.688Z,4.88
2022-10-20T14:21:16.408Z,4.95
2022-10-20T14:23:45.634Z,5.40
2022-10-20T14:26:21.513Z,6.63
2022-10-20T14:28:51.168Z,5.15
2022-10-20T14:31:24.012Z,6.65
2022-10-20T14:33:52.483Z,5.40
2022-10-20T14:38:56.176Z,7.13
2022-10-20T14:41:30.800Z,6.30
2022-10-20T14:44:14.736Z,9.05
2022-10-20T14:46:47.994Z,5.63
2022-10-20T14:49:36.348Z,5.78
2022-10-20T14:52:21.333Z,6.15
2022-10-20T14:54:50.122Z,5.00
2022-10-20T14:57:16.970Z,7.40
2022-10-20T14:59:51.327Z,7.95
2022-10-20T15:02:21.561Z,6.88
2022-10-20T15:04:52.075Z,7.78
2022-10-20T15:07:33.523Z,6.25
2022-10-20T15:10:14.233Z,6.03
2022-10-20T15:12:45.927Z,7.40
2022-10-20T15:15:12.580Z,6.68
2022-10-20T15:17:52.005Z,5.50
2022-10-20T15:20:39.424Z,5.18
2022-10-20T15:23:10.429Z,8.13
2022-10-20T15:25:58.965Z,9.07
2022-10-20T15:28:29.154Z,9.57
2022-10-20T15:30:55.996Z,8.15
2022-10-20T15:33:22.823Z,8.07
2022-10-20T15:35:50.757Z,8.50
2022-10-20T15:38:17.548Z,8.45
2022-10-20T15:40:44.689Z,7.43
2022-10-20T15:43:13.967Z,9.27
2022-10-20T15:45:54.517Z,8.95
2022-10-20T15:48:38.886Z,7.65
2022-10-20T15:51:11.142Z,8.63
2022-10-20T15:53:37.832Z,9.20
2022-10-20T15:56:07.352Z,8.68
2022-10-20T15:58:38.829Z,8.10
2022-10-20T16:01:07.767Z,11.63
2022-10-20T16:03:35.714Z,10.77
2022-10-20T16:06:02.486Z,9.98
2022-10-20T16:08:29.322Z,11.70
2022-10-20T16:10:56.482Z,9.70
2022-10-20T16:13:23.173Z,12.52
2022-10-20T16:15:49.731Z,11.80
2022-10-20T16:18:16.283Z,9.20
2022-10-20T16:20:42.886Z,11.60
2022-10-20T16:23:09.451Z,10.35
2022-10-20T16:25:39.616Z,9.55
2022-10-20T16:28:06.286Z,9.55
2022-10-20T16:30:33.047Z,10.63
2022-10-20T16:32:59.655Z,11.88
2022-10-20T16:35:26.412Z,12.20
2022-10-20T16:37:52.980Z,9.40
2022-10-20T16:40:19.915Z,11.52
2022-10-20T16:42:46.573Z,12.10
2022-10-20T16:45:13.440Z,10.88
2022-10-20T16:47:40.340Z,11.43
2022-10-20T16:50:09.875Z,10.30
2022-10-20T16:52:36.865Z,9.82
2022-10-20T16:55:04.118Z,10.73
2022-10-20T16:57:38.201Z,9.73
2022-10-20T17:00:07.528Z,11.80
2022-10-20T17:02:37.191Z,10.93
2022-10-20T17:05:08.190Z,15.52
2022-10-20T17:07:36.784Z,9.48
2022-10-20T17:10:04.112Z,15.52
2022-10-20T17:12:30.777Z,10.95
2022-10-20T17:14:57.464Z,9.48
2022-10-20T17:17:24.210Z,9.23
2022-10-20T17:19:50.985Z,11.45
2022-10-20T17:22:17.822Z,8.55
2022-10-20T17:24:45.717Z,9.20
2022-10-20T17:27:12.515Z,9.82
2022-10-20T17:29:39.793Z,9.23
2022-10-20T17:32:06.728Z,11.93
2022-10-20T17:34:33.451Z,9.57
2022-10-20T17:37:00.218Z,10.00
2022-10-20T17:39:28.123Z,9.15
2022-10-20T17:41:54.855Z,8.90
2022-10-20T17:44:21.858Z,8.80
2022-10-20T17:46:48.685Z,9.95
2022-10-20T17:49:15.410Z,9.57
2022-10-20T17:51:44.164Z,9.40
2022-10-20T17:54:11.043Z,11.27
2022-10-20T17:56:42.044Z,11.25
2022-10-20T18:01:40.771Z,11.73
2022-10-20T18:04:10.613Z,9.90
2022-10-20T18:06:38.526Z,11.43
2022-10-20T18:09:11.091Z,9.73
2022-10-20T18:11:39.954Z,10.30
2022-10-20T18:14:07.566Z,11.00
2022-10-20T18:16:37.330Z,12.40
2022-10-20T18:19:04.977Z,11.15
2022-10-20T18:21:32.464Z,13.70
2022-10-20T18:24:02.774Z,13.93
2022-10-20T18:26:32.074Z,13.25
2022-10-20T18:29:00.248Z,13.60
2022-10-20T18:31:30.732Z,14.63
2022-10-20T18:34:04.282Z,11.20
2022-10-20T18:36:38.105Z,14.38
2022-10-20T18:39:08.265Z,13.77
2022-10-20T18:41:39.678Z,17.20
2022-10-20T18:44:11.624Z,14.18
2022-10-20T18:46:39.604Z,13.07
2022-10-20T18:49:08.172Z,15.70
2022-10-20T18:51:36.639Z,13.60
2022-10-20T18:54:04.718Z,15.52
2022-10-20T18:56:31.623Z,17.85
2022-10-20T18:59:01.472Z,15.00
2022-10-20T19:01:30.718Z,14.05
2022-10-20T19:03:58.698Z,17.15
2022-10-20T19:06:33.923Z,27.77
2022-10-20T19:09:03.669Z,14.98
2022-10-20T19:11:32.371Z,16.75
2022-10-20T19:14:00.447Z,14.07
2022-10-20T19:16:30.107Z,16.00
2022-10-20T19:19:01.120Z,14.00
2022-10-20T19:21:28.525Z,18.55
2022-10-20T19:24:06.833Z,16.38
2022-10-20T19:26:42.761Z,16.23
2022-10-20T19:29:16.348Z,14.82
2022-10-20T19:31:43.134Z,19.02
2022-10-20T19:34:14.882Z,17.73
2022-10-20T19:36:42.685Z,15.65
2022-10-20T19:39:11.388Z,18.98
2022-10-20T19:41:38.376Z,15.82
2022-10-20T19:44:06.017Z,16.95
2022-10-20T19:46:32.923Z,18.50
2022-10-20T19:48:59.923Z,17.13
2022-10-20T19:51:26.741Z,16.90
2022-10-20T19:53:53.688Z,18.77
2022-10-20T19:56:20.620Z,16.00
2022-10-20T19:58:48.492Z,17.20
2022-10-20T20:01:17.797Z,17.98
2022-10-20T20:03:48.426Z,19.35
2022-10-20T20:06:20.709Z,16.58
2022-10-20T20:08:50.248Z,20.27
2022-10-20T20:11:27.411Z,20.35
2022-10-20T20:13:57.057Z,22.88
2022-10-20T20:16:24.445Z,22.00
2022-10-20T20:18:51.366Z,21.48
2022-10-20T20:21:18.580Z,21.00
2022-10-20T20:23:58.809Z,22.38
2022-10-20T20:26:27.486Z,24.15
2022-10-20T20:28:55.404Z,23.10
2022-10-20T20:31:23.014Z,21.98
2022-10-20T20:33:50.203Z,24.77
2022-10-20T20:36:17.307Z,22.42
2022-10-20T20:38:44.421Z,24.55
2022-10-20T20:41:13.602Z,24.10
2022-10-20T20:43:46.723Z,25.08
2022-10-20T20:46:18.464Z,25.50
2022-10-20T20:48:45.607Z,27.55
2022-10-20T20:51:12.667Z,30.73
2022-10-20T20:53:40.413Z,26.95
2022-10-20T20:56:09.923Z,27.83
2022-10-20T20:58:36.987Z,30.85
2022-10-20T21:01:04.775Z,32.75
2022-10-20T21:03:32.560Z,36.05
2022-10-20T21:06:07.708Z,30.60
2022-10-20T21:08:35.909Z,31.38
2022-10-20T21:11:10.489Z,32.85
2022-10-20T21:13:38.304Z,30.88
2022-10-20T21:16:09.080Z,32.50
2022-10-20T21:18:35.795Z,36.75
2022-10-20T21:21:22.747Z,33.78
2022-10-20T21:23:49.748Z,35.75
2022-10-20T21:26:18.205Z,37.38
2022-10-20T21:28:45.815Z,36.95
2022-10-20T21:31:18.411Z,41.72
2022-10-20T21:33:46.450Z,40.92
2022-10-20T21:36:16.572Z,47.60
2022-10-20T21:38:43.843Z,48.08
2022-10-20T21:41:16.387Z,47.88
2022-10-20T21:43:47.969Z,50.38
2022-10-20T21:46:35.355Z,45.67
2022-10-20T21:49:05.944Z,48.00
2022-10-20T21:51:35.215Z,47.03
2022-10-20T21:54:04.467Z,51.22
2022-10-20T21:56:36.231Z,51.75
2022-10-20T21:59:06.574Z,49.33
2022-10-20T22:01:33.533Z,54.67
2022-10-20T22:04:00.578Z,51.97
2022-10-20T22:06:28.069Z,54.78
2022-10-20T22:08:57.227Z,60.65
2022-10-20T22:11:28.040Z,63.70
2022-10-20T22:13:54.929Z,62.92
2022-10-20T22:16:24.257Z,57.55
2022-10-20T22:18:58.669Z,54.95
2022-10-20T22:21:26.247Z,60.15
2022-10-20T22:23:54.986Z,56.58
2022-10-20T22:26:25.629Z,59.60
2022-10-20T22:28:53.027Z,62.20
2022-10-20T22:31:19.773Z,68.65
2022-10-20T22:33:46.448Z,61.92
2022-10-20T22:36:13.148Z,65.50
2022-10-20T22:38:39.817Z,75.22
2022-10-20T22:41:06.556Z,79.95
2022-10-20T22:43:33.267Z,75.68
2022-10-20T22:46:00.028Z,78.13
2022-10-20T22:48:26.717Z,80.43
2022-10-20T22:50:53.647Z,74.88
2022-10-20T22:53:20.669Z,77.05
2022-10-20T22:55:47.685Z,76.90
2022-10-20T22:58:14.482Z,79.35
2022-10-20T23:00:43.557Z,79.55
2022-10-20T23:03:10.852Z,83.30
2022-10-20T23:05:37.991Z,73.72
2022-10-20T23:08:05.956Z,78.63
2022-10-20T23:10:33.166Z,78.63
2022-10-20T23:12:59.899Z,78.82
2022-10-20T23:15:27.406Z,84.30
2022-10-20T23:17:54.428Z,75.85
2022-10-20T23:20:21.171Z,78.97
2022-10-20T23:22:50.594Z,78.68
2022-10-20T23:25:17.340Z,80.03
2022-10-20T23:27:44.101Z,77.28
2022-10-20T23:30:10.959Z,74.78
2022-10-20T23:32:37.651Z,82.10
2022-10-20T23:35:04.624Z,80.85
2022-10-20T23:37:32.173Z,73.97
2022-10-20T23:39:58.859Z,83.70
2022-10-20T23:42:25.695Z,80.30
2022-10-20T23:44:52.290Z,79.75
2022-10-20T23:47:18.957Z,78.50
2022-10-20T23:49:45.623Z,77.00
2022-10-20T23:52:12.324Z,74.95
2022-10-20T23:54:38.929Z,72.85
2022-10-20T23:57:05.903Z,77.70
2022-10-20T23:59:32.607Z,74.20
